createdAt,value
2018-01-30T00:01:19.255Z,2.97
2018-01-30T00:03:47.528Z,2.90
2018-01-30T00:06:15.813Z,2.63
2018-01-30T00:08:44.092Z,3.23
2018-01-30T00:11:13.134Z,3.07
2018-01-30T00:13:41.402Z,2.80
2018-01-30T00:16:09.682Z,2.93
2018-01-30T00:18:38.712Z,3.43
2018-01-30T00:21:06.989Z,3.20
2018-01-30T00:23:35.281Z,3.53
2018-01-30T00:26:03.597Z,2.90
2018-01-30T00:28:31.880Z,3.30
2018-01-30T00:31:07.408Z,3.12
2018-01-30T00:33:36.608Z,3.10
2018-01-30T00:36:04.878Z,2.97
2018-01-30T00:38:33.911Z,2.92
2018-01-30T00:41:02.180Z,2.90
2018-01-30T00:43:31.233Z,2.15
2018-01-30T00:45:59.484Z,2.60
2018-01-30T00:48:27.764Z,3.22
2018-01-30T00:50:56.038Z,3.17
2018-01-30T00:53:24.311Z,2.85
2018-01-30T00:55:52.589Z,2.97
2018-01-30T00:58:20.860Z,3.15
2018-01-30T01:00:49.132Z,3.90
2018-01-30T01:03:17.408Z,4.65
2018-01-30T01:05:45.660Z,3.50
2018-01-30T01:08:13.931Z,3.70
2018-01-30T01:10:42.209Z,3.90
2018-01-30T01:13:11.405Z,4.45
2018-01-30T01:15:39.661Z,3.70
2018-01-30T01:18:08.715Z,3.53
2018-01-30T01:20:36.979Z,3.30
2018-01-30T01:23:26.837Z,4.10
2018-01-30T01:25:55.108Z,3.95
2018-01-30T01:28:23.396Z,3.50
2018-01-30T01:30:51.652Z,3.47
2018-01-30T01:33:27.154Z,3.53
2018-01-30T01:35:59.378Z,2.97
2018-01-30T01:38:49.214Z,3.40
2018-01-30T01:41:17.500Z,3.65
2018-01-30T01:43:45.783Z,3.80
2018-01-30T01:46:14.048Z,4.40
2018-01-30T01:48:42.324Z,4.35
2018-01-30T01:51:10.584Z,4.10
2018-01-30T01:53:38.864Z,3.90
2018-01-30T01:56:07.132Z,3.70
2018-01-30T01:58:35.412Z,4.30
2018-01-30T02:01:04.588Z,3.25
2018-01-30T02:03:34.829Z,3.80
2018-01-30T02:06:03.091Z,3.37
2018-01-30T02:08:32.142Z,5.97
2018-01-30T02:11:00.409Z,3.92
2018-01-30T02:13:28.693Z,4.47
2018-01-30T02:16:13.481Z,4.35
2018-01-30T02:18:41.770Z,3.72
2018-01-30T02:21:10.016Z,4.17
2018-01-30T02:23:49.468Z,4.35
2018-01-30T02:26:19.745Z,3.37
2018-01-30T02:28:48.022Z,3.50
2018-01-30T02:31:17.044Z,4.63
2018-01-30T02:33:45.326Z,4.40
2018-01-30T02:36:13.591Z,3.17
2018-01-30T02:38:42.643Z,5.95
2018-01-30T02:41:10.916Z,4.75
2018-01-30T02:43:39.188Z,3.25
2018-01-30T02:46:22.651Z,3.87
2018-01-30T02:48:50.924Z,3.70
2018-01-30T02:51:19.198Z,3.17
2018-01-30T02:53:48.240Z,3.20
2018-01-30T02:56:16.512Z,4.00
2018-01-30T02:58:51.120Z,4.62
2018-01-30T03:01:20.161Z,5.68
2018-01-30T03:03:49.362Z,5.22
2018-01-30T03:06:18.589Z,5.05
2018-01-30T03:08:47.620Z,5.15
2018-01-30T03:11:15.906Z,5.80
2018-01-30T03:14:02.300Z,3.20
2018-01-30T03:16:30.599Z,3.40
2018-01-30T03:18:58.872Z,2.70
2018-01-30T03:21:27.170Z,2.70
2018-01-30T03:23:55.456Z,3.25
2018-01-30T03:26:23.744Z,3.00
2018-01-30T03:28:52.019Z,3.03
2018-01-30T03:34:25.253Z,3.30
2018-01-30T03:37:00.995Z,2.70
2018-01-30T03:39:30.033Z,3.33
2018-01-30T03:41:58.314Z,2.70
2018-01-30T03:44:26.590Z,2.40
2018-01-30T03:47:08.443Z,3.40
2018-01-30T03:50:00.493Z,3.97
2018-01-30T03:52:28.773Z,2.85
2018-01-30T03:55:27.072Z,2.60
2018-01-30T03:57:55.356Z,3.00
2018-01-30T04:03:38.437Z,2.80
2018-01-30T04:06:09.773Z,2.33
2018-01-30T04:08:38.039Z,3.70
2018-01-30T04:11:06.340Z,3.35
2018-01-30T04:13:34.604Z,2.40
2018-01-30T04:16:03.654Z,2.80
2018-01-30T04:18:32.698Z,3.80
2018-01-30T04:21:00.976Z,3.37
2018-01-30T04:23:31.168Z,3.70
2018-01-30T04:26:16.985Z,3.62
2018-01-30T04:28:46.488Z,4.03
2018-01-30T04:31:19.070Z,3.05
2018-01-30T04:33:49.337Z,3.35
2018-01-30T04:39:33.216Z,3.40
2018-01-30T04:45:06.940Z,3.20
2018-01-30T04:47:35.228Z,2.90
2018-01-30T04:50:11.784Z,3.50
2018-01-30T04:52:40.839Z,3.35
2018-01-30T04:55:09.121Z,2.92
2018-01-30T05:00:41.260Z,4.78
2018-01-30T05:03:16.554Z,3.67
2018-01-30T05:11:45.976Z,4.40
2018-01-30T05:14:14.251Z,3.78
2018-01-30T05:17:08.573Z,5.07
2018-01-30T05:19:36.868Z,4.75
2018-01-30T05:22:05.177Z,8.80
2018-01-30T05:24:37.918Z,6.40
2018-01-30T05:27:07.132Z,8.37
2018-01-30T05:29:35.408Z,7.53
2018-01-30T05:38:05.612Z,7.37
2018-01-30T05:40:33.903Z,7.87
2018-01-30T05:43:02.180Z,4.68
2018-01-30T05:45:31.221Z,6.68
2018-01-30T05:47:59.491Z,8.68
2018-01-30T05:50:27.786Z,5.93
2018-01-30T05:52:56.075Z,5.18
2018-01-30T05:55:30.628Z,6.75
2018-01-30T05:57:58.913Z,11.38
2018-01-30T06:00:53.250Z,5.03
2018-01-30T06:03:21.512Z,7.62
2018-01-30T06:05:49.793Z,9.23
2018-01-30T06:08:24.283Z,5.50
2018-01-30T06:10:53.349Z,11.55
2018-01-30T06:13:21.670Z,10.10
2018-01-30T06:15:49.917Z,9.18
2018-01-30T06:18:18.206Z,8.27
2018-01-30T06:20:46.494Z,8.13
2018-01-30T06:23:14.785Z,6.95
2018-01-30T06:25:49.221Z,5.80
2018-01-30T06:28:39.469Z,7.18
2018-01-30T06:34:13.697Z,4.22
2018-01-30T06:36:41.979Z,5.70
2018-01-30T06:39:10.294Z,5.72
2018-01-30T06:41:38.563Z,5.07
2018-01-30T06:44:06.828Z,8.80
2018-01-30T06:46:35.114Z,9.68
2018-01-30T06:49:03.388Z,5.75
2018-01-30T06:51:31.682Z,4.40
2018-01-30T06:53:59.951Z,6.03
2018-01-30T06:56:37.056Z,6.07
2018-01-30T06:59:06.098Z,8.15
2018-01-30T07:01:41.850Z,7.43
2018-01-30T07:04:10.116Z,5.20
2018-01-30T07:06:39.168Z,6.47
2018-01-30T07:09:07.441Z,6.97
2018-01-30T07:11:35.733Z,10.45
2018-01-30T07:14:11.344Z,8.43
2018-01-30T07:16:40.585Z,5.90
2018-01-30T07:19:08.860Z,5.75
2018-01-30T07:21:37.908Z,7.00
2018-01-30T07:24:06.189Z,12.13
2018-01-30T07:26:34.481Z,9.52
2018-01-30T07:29:02.756Z,8.00
2018-01-30T07:31:31.948Z,7.97
2018-01-30T07:34:00.216Z,6.25
2018-01-30T07:36:28.489Z,5.30
2018-01-30T07:38:56.768Z,5.93
2018-01-30T07:41:25.055Z,7.62
2018-01-30T07:43:53.324Z,4.87
2018-01-30T07:46:21.617Z,4.53
2018-01-30T07:48:49.893Z,5.22
2018-01-30T07:51:18.164Z,5.15
2018-01-30T07:53:46.454Z,5.25
2018-01-30T07:56:14.724Z,4.80
2018-01-30T07:58:43.777Z,5.00
2018-01-30T08:01:12.040Z,4.50
2018-01-30T08:03:40.330Z,4.95
2018-01-30T08:06:08.595Z,4.62
2018-01-30T08:08:37.656Z,4.60
2018-01-30T08:11:05.932Z,4.53
2018-01-30T08:13:34.225Z,4.35
2018-01-30T08:16:02.501Z,4.32
2018-01-30T08:18:30.781Z,4.25
2018-01-30T08:20:59.052Z,4.40
2018-01-30T08:23:27.343Z,4.90
2018-01-30T08:25:55.620Z,5.82
2018-01-30T08:28:24.658Z,5.80
2018-01-30T08:30:52.923Z,5.87
2018-01-30T08:33:21.209Z,5.90
2018-01-30T08:35:49.489Z,6.37
2018-01-30T08:38:18.535Z,5.55
2018-01-30T08:40:47.346Z,6.18
2018-01-30T08:43:16.340Z,5.45
2018-01-30T08:45:44.609Z,6.30
2018-01-30T08:48:12.892Z,6.07
2018-01-30T08:50:41.164Z,5.62
2018-01-30T08:53:10.218Z,5.63
2018-01-30T08:55:38.493Z,5.27
2018-01-30T08:58:06.785Z,5.80
2018-01-30T09:00:35.057Z,5.43
2018-01-30T09:03:03.332Z,5.30
2018-01-30T09:05:32.381Z,4.83
2018-01-30T09:08:00.657Z,4.95
2018-01-30T09:10:28.958Z,5.37
2018-01-30T09:13:00.032Z,5.70
2018-01-30T09:15:28.345Z,4.62
2018-01-30T09:17:56.605Z,5.30
2018-01-30T09:20:28.016Z,4.95
2018-01-30T09:22:56.302Z,5.07
2018-01-30T09:25:25.344Z,5.55
2018-01-30T09:27:53.607Z,6.00
2018-01-30T09:30:21.884Z,5.60
2018-01-30T09:32:50.160Z,5.62
2018-01-30T09:35:19.216Z,5.50
2018-01-30T09:37:47.496Z,5.20
2018-01-30T09:40:16.557Z,7.35
2018-01-30T09:42:44.836Z,5.85
2018-01-30T09:45:13.133Z,4.85
2018-01-30T09:47:41.409Z,5.07
2018-01-30T09:50:09.700Z,5.45
2018-01-30T09:52:37.963Z,5.82
2018-01-30T09:55:06.276Z,4.20
2018-01-30T09:57:34.553Z,4.53
2018-01-30T10:00:02.956Z,3.80
2018-01-30T10:02:31.217Z,4.93
2018-01-30T10:04:59.508Z,4.00
2018-01-30T10:07:27.776Z,4.17
2018-01-30T10:09:56.047Z,4.60
2018-01-30T10:12:24.313Z,3.57
2018-01-30T10:14:53.349Z,3.80
2018-01-30T10:17:21.625Z,3.73
2018-01-30T10:19:50.688Z,3.97
2018-01-30T10:22:18.956Z,3.73
2018-01-30T10:24:47.227Z,3.70
2018-01-30T10:27:15.500Z,3.87
2018-01-30T10:29:43.777Z,4.03
2018-01-30T10:32:12.818Z,3.83
2018-01-30T10:34:41.093Z,3.70
2018-01-30T10:37:09.362Z,4.13
2018-01-30T10:39:38.409Z,3.50
2018-01-30T10:42:06.668Z,4.30
2018-01-30T10:44:35.721Z,3.60
2018-01-30T10:47:03.980Z,3.47
2018-01-30T10:49:32.258Z,4.07
2018-01-30T10:52:00.527Z,3.37
2018-01-30T10:54:29.603Z,4.50
2018-01-30T10:56:57.868Z,5.00
2018-01-30T10:59:26.160Z,4.23
2018-01-30T11:01:54.412Z,3.63
2018-01-30T11:04:22.709Z,3.70
2018-01-30T11:06:51.804Z,3.67
2018-01-30T11:09:20.835Z,3.73
2018-01-30T11:11:49.110Z,3.90
2018-01-30T11:14:17.372Z,4.30
2018-01-30T11:16:46.432Z,4.10
2018-01-30T11:19:14.705Z,4.60
2018-01-30T11:21:42.993Z,4.53
2018-01-30T11:24:11.284Z,4.50
2018-01-30T11:26:39.556Z,4.63
2018-01-30T11:29:07.825Z,3.83
2018-01-30T11:31:36.862Z,3.57
2018-01-30T11:34:05.164Z,4.30
2018-01-30T11:36:33.444Z,3.80
2018-01-30T11:39:01.722Z,4.13
2018-01-30T11:41:29.983Z,4.20
2018-01-30T11:43:59.015Z,4.00
2018-01-30T11:46:27.301Z,3.53
2018-01-30T11:48:55.580Z,3.70
2018-01-30T11:51:24.620Z,4.20
2018-01-30T11:53:52.883Z,4.60
2018-01-30T11:56:21.163Z,4.13
2018-01-30T11:58:49.428Z,5.50
2018-01-30T12:01:17.700Z,4.80
2018-01-30T12:03:45.964Z,4.23
2018-01-30T12:06:14.246Z,3.90
2018-01-30T12:08:45.507Z,4.07
2018-01-30T12:11:13.792Z,3.70
2018-01-30T12:13:42.065Z,4.63
2018-01-30T12:16:10.345Z,4.80
2018-01-30T12:18:38.599Z,5.60
2018-01-30T12:21:06.881Z,5.37
2018-01-30T12:23:35.153Z,5.17
2018-01-30T12:26:03.433Z,6.00
2018-01-30T12:28:31.700Z,6.80
2018-01-30T12:30:59.963Z,5.37
2018-01-30T12:33:29.055Z,6.70
2018-01-30T12:35:57.296Z,5.90
2018-01-30T12:38:25.567Z,5.50
2018-01-30T12:40:53.857Z,4.40
2018-01-30T12:43:22.123Z,5.40
2018-01-30T12:45:51.168Z,5.43
2018-01-30T12:48:20.204Z,6.43
2018-01-30T12:50:48.484Z,5.93
2018-01-30T12:53:16.757Z,6.00
2018-01-30T12:55:45.035Z,5.73
2018-01-30T12:58:13.309Z,5.33
2018-01-30T13:00:41.575Z,4.57
2018-01-30T13:03:10.611Z,4.13
2018-01-30T13:05:38.888Z,6.00
2018-01-30T13:08:07.169Z,5.03
2018-01-30T13:10:35.440Z,5.23
2018-01-30T13:13:04.476Z,4.80
2018-01-30T13:15:32.754Z,4.50
2018-01-30T13:18:01.026Z,4.53
2018-01-30T13:20:30.189Z,4.43
2018-01-30T13:22:58.447Z,5.13
2018-01-30T13:25:26.736Z,5.23
2018-01-30T13:27:55.029Z,5.27
2018-01-30T13:30:23.305Z,5.10
2018-01-30T13:32:51.572Z,5.47
2018-01-30T13:35:23.560Z,5.13
2018-01-30T13:37:52.583Z,4.63
2018-01-30T13:40:20.877Z,5.00
2018-01-30T13:42:49.148Z,5.17
2018-01-30T13:45:17.455Z,6.43
2018-01-30T13:47:46.496Z,5.20
2018-01-30T13:50:14.866Z,5.63
2018-01-30T13:52:43.156Z,5.07
2018-01-30T13:55:11.446Z,6.20
2018-01-30T13:57:39.735Z,5.57
2018-01-30T14:00:08.047Z,5.83
2018-01-30T14:02:36.328Z,5.50
2018-01-30T14:05:04.584Z,5.30
2018-01-30T14:07:32.890Z,5.80
2018-01-30T14:10:01.177Z,6.17
2018-01-30T14:12:29.464Z,5.90
2018-01-30T14:14:57.753Z,5.93
2018-01-30T14:17:26.044Z,6.03
2018-01-30T14:19:54.343Z,5.80
2018-01-30T14:22:22.636Z,6.73
2018-01-30T14:24:50.913Z,6.10
2018-01-30T14:27:19.231Z,5.77
2018-01-30T14:29:47.559Z,6.50
2018-01-30T14:32:15.848Z,6.57
2018-01-30T14:34:44.868Z,7.40
2018-01-30T14:37:13.162Z,6.70
2018-01-30T14:39:42.244Z,6.17
2018-01-30T14:42:10.556Z,6.67
2018-01-30T14:44:38.820Z,7.20
2018-01-30T14:47:07.108Z,6.00
2018-01-30T14:49:36.152Z,7.50
2018-01-30T14:52:04.469Z,6.20
2018-01-30T14:54:32.750Z,7.60
2018-01-30T14:57:01.041Z,6.10
2018-01-30T14:59:29.386Z,6.93
2018-01-30T15:01:57.680Z,6.13
2018-01-30T15:04:25.990Z,7.23
2018-01-30T15:06:54.331Z,7.50
2018-01-30T15:09:23.365Z,6.70
2018-01-30T15:11:51.673Z,7.40
2018-01-30T15:14:19.943Z,7.27
2018-01-30T15:16:48.215Z,7.00
2018-01-30T15:19:17.274Z,7.13
2018-01-30T15:21:45.595Z,8.03
2018-01-30T15:24:14.648Z,8.47
2018-01-30T15:26:42.932Z,7.50
2018-01-30T15:29:11.208Z,7.80
2018-01-30T15:31:39.494Z,7.70
2018-01-30T15:34:07.764Z,7.83
2018-01-30T15:36:37.865Z,8.20
2018-01-30T15:39:06.182Z,7.57
2018-01-30T15:41:34.493Z,7.53
2018-01-30T15:44:03.604Z,7.53
2018-01-30T15:46:31.906Z,8.40
2018-01-30T15:49:00.215Z,8.33
2018-01-30T15:51:28.510Z,8.73
2018-01-30T15:53:56.820Z,8.50
2018-01-30T15:56:25.925Z,10.13
2018-01-30T15:58:54.207Z,9.20
2018-01-30T16:01:22.505Z,9.27
2018-01-30T16:03:50.780Z,8.70
2018-01-30T16:06:19.075Z,8.63
2018-01-30T16:08:47.374Z,9.40
2018-01-30T16:11:15.671Z,9.57
2018-01-30T16:13:44.723Z,10.40
2018-01-30T16:16:13.280Z,10.80
2018-01-30T16:18:42.336Z,10.30
2018-01-30T16:21:10.636Z,10.10
2018-01-30T16:23:38.908Z,8.90
2018-01-30T16:26:07.256Z,9.60
2018-01-30T16:28:35.561Z,10.37
2018-01-30T16:31:30.680Z,10.70
2018-01-30T16:33:58.954Z,11.43
2018-01-30T16:36:44.353Z,7.78
2018-01-30T16:39:27.218Z,9.82
2018-01-30T16:42:25.216Z,10.15
2018-01-30T16:44:53.502Z,10.23
2018-01-30T16:47:38.481Z,10.50
2018-01-30T16:50:06.781Z,9.57
2018-01-30T16:52:35.085Z,9.07
2018-01-30T16:55:04.133Z,10.25
2018-01-30T16:57:32.417Z,8.15
2018-01-30T17:00:00.680Z,9.05
2018-01-30T17:02:29.724Z,8.15
2018-01-30T17:04:57.994Z,9.27
2018-01-30T17:07:26.301Z,8.40
2018-01-30T17:09:54.574Z,9.10
2018-01-30T17:12:44.605Z,8.77
2018-01-30T17:15:12.945Z,9.02
2018-01-30T17:17:43.925Z,9.35
2018-01-30T17:20:12.210Z,10.98
2018-01-30T17:22:40.484Z,12.55
2018-01-30T17:25:08.775Z,10.65
2018-01-30T17:27:37.057Z,10.00
2018-01-30T17:30:06.088Z,11.18
2018-01-30T17:32:34.405Z,11.38
2018-01-30T17:35:02.716Z,11.43
2018-01-30T17:37:30.993Z,11.23
2018-01-30T17:39:59.271Z,11.95
2018-01-30T17:42:46.096Z,11.98
2018-01-30T17:45:26.937Z,12.48
2018-01-30T17:47:55.246Z,13.48
2018-01-30T17:50:23.748Z,11.38
2018-01-30T17:52:52.972Z,12.57
2018-01-30T17:55:21.248Z,12.73
2018-01-30T17:57:49.532Z,12.10
2018-01-30T18:00:17.818Z,13.50
2018-01-30T18:02:46.116Z,13.23
2018-01-30T18:05:14.400Z,14.10
2018-01-30T18:08:15.114Z,13.02
2018-01-30T18:10:44.168Z,13.15
2018-01-30T18:13:12.498Z,14.10
2018-01-30T18:15:54.682Z,15.00
2018-01-30T18:18:32.638Z,17.85
2018-01-30T18:21:01.685Z,19.45
2018-01-30T18:23:29.972Z,18.33
2018-01-30T18:25:58.251Z,15.30
2018-01-30T18:28:26.549Z,13.62
2018-01-30T18:30:54.828Z,14.27
2018-01-30T18:33:23.113Z,13.25
2018-01-30T18:35:51.394Z,13.13
2018-01-30T18:38:19.696Z,11.50
2018-01-30T18:40:47.997Z,11.15
2018-01-30T18:43:16.278Z,11.10
2018-01-30T18:45:44.551Z,11.00
2018-01-30T18:48:12.828Z,11.65
2018-01-30T18:50:41.103Z,10.40
2018-01-30T18:53:10.145Z,10.18
2018-01-30T18:55:38.416Z,8.57
2018-01-30T18:58:06.703Z,8.80
2018-01-30T19:00:34.985Z,7.30
2018-01-30T19:03:04.024Z,7.40
2018-01-30T19:05:32.300Z,7.72
2018-01-30T19:08:00.585Z,7.95
2018-01-30T19:10:29.628Z,7.12
2018-01-30T19:12:57.913Z,6.75
2018-01-30T19:15:26.180Z,6.10
2018-01-30T19:17:54.457Z,7.12
2018-01-30T19:20:22.818Z,6.00
2018-01-30T19:22:51.091Z,6.90
2018-01-30T19:25:19.372Z,7.10
2018-01-30T19:27:47.644Z,6.95
2018-01-30T19:30:17.899Z,6.50
2018-01-30T19:32:46.176Z,6.18
2018-01-30T19:35:24.176Z,7.03
2018-01-30T19:37:52.440Z,6.75
2018-01-30T19:40:20.721Z,7.15
2018-01-30T19:42:50.960Z,7.15
2018-01-30T19:45:25.890Z,7.55
2018-01-30T19:47:58.052Z,7.00
2018-01-30T19:50:32.800Z,6.82
2018-01-30T19:53:01.834Z,7.00
2018-01-30T19:55:30.109Z,7.00
2018-01-30T19:58:02.212Z,8.05
2018-01-30T20:00:54.263Z,8.05
2018-01-30T20:03:22.535Z,7.75
2018-01-30T20:05:50.826Z,8.30
2018-01-30T20:08:40.729Z,7.25
2018-01-30T20:11:19.345Z,7.70
2018-01-30T20:13:47.616Z,8.07
2018-01-30T20:16:17.581Z,7.78
2018-01-30T20:18:45.854Z,8.13
2018-01-30T20:21:14.148Z,8.10
2018-01-30T20:23:42.430Z,7.47
2018-01-30T20:26:10.712Z,7.25
2018-01-30T20:28:38.995Z,8.55
2018-01-30T20:31:07.285Z,8.45
2018-01-30T20:33:36.336Z,7.70
2018-01-30T20:36:09.678Z,7.82
2018-01-30T20:38:37.972Z,8.00
2018-01-30T20:41:07.004Z,8.85
2018-01-30T20:43:35.296Z,8.55
2018-01-30T20:46:03.570Z,7.55
2018-01-30T20:48:32.616Z,7.78
2018-01-30T20:51:00.889Z,8.10
2018-01-30T20:53:29.171Z,7.43
2018-01-30T20:56:27.448Z,8.27
2018-01-30T20:58:56.524Z,7.72
2018-01-30T21:01:24.777Z,7.00
2018-01-30T21:04:24.036Z,8.45
2018-01-30T21:06:52.311Z,7.75
2018-01-30T21:09:20.589Z,7.60
2018-01-30T21:11:48.861Z,8.25
2018-01-30T21:14:37.661Z,8.15
2018-01-30T21:17:05.938Z,6.82
2018-01-30T21:19:34.257Z,7.57
2018-01-30T21:22:02.528Z,7.28
2018-01-30T21:24:30.811Z,7.55
2018-01-30T21:30:01.338Z,7.37
2018-01-30T21:32:29.600Z,6.78
2018-01-30T21:34:58.640Z,7.00
2018-01-30T21:37:44.047Z,7.03
2018-01-30T21:40:25.348Z,7.65
2018-01-30T21:42:53.609Z,6.72
2018-01-30T21:45:32.212Z,6.93
2018-01-30T21:48:01.243Z,5.82
2018-01-30T21:50:40.260Z,5.80
2018-01-30T21:53:09.304Z,6.05
2018-01-30T21:55:50.832Z,6.32
2018-01-30T21:58:32.010Z,6.15
2018-01-30T22:01:13.813Z,5.87
2018-01-30T22:04:12.729Z,6.43
2018-01-30T22:06:40.989Z,7.10
2018-01-30T22:09:09.270Z,6.55
2018-01-30T22:11:49.632Z,6.30
2018-01-30T22:14:20.635Z,5.85
2018-01-30T22:16:48.919Z,8.68
2018-01-30T22:19:17.183Z,6.30
2018-01-30T22:21:45.473Z,7.05
2018-01-30T22:24:21.928Z,6.40
2018-01-30T22:26:50.192Z,7.30
2018-01-30T22:32:39.485Z,5.78
2018-01-30T22:35:08.580Z,5.40
2018-01-30T22:37:40.935Z,6.50
2018-01-30T22:40:13.979Z,5.63
2018-01-30T22:42:42.243Z,6.00
2018-01-30T22:45:10.544Z,6.05
